createdAt,value
2018-09-09T00:02:25.978Z,5.60
2018-09-09T00:04:54.179Z,5.67
2018-09-09T00:07:22.361Z,5.90
2018-09-09T00:09:51.098Z,6.10
2018-09-09T00:12:20.023Z,5.20
2018-09-09T00:14:48.583Z,5.90
2018-09-09T00:17:16.756Z,5.87
2018-09-09T00:19:44.958Z,5.42
2018-09-09T00:22:13.158Z,6.20
2018-09-09T00:24:41.378Z,5.70
2018-09-09T00:27:09.561Z,5.70
2018-09-09T00:29:37.745Z,5.60
2018-09-09T00:32:05.909Z,5.60
2018-09-09T00:34:34.061Z,5.80
2018-09-09T00:37:02.225Z,5.80
2018-09-09T00:39:30.431Z,5.20
2018-09-09T00:41:58.610Z,5.30
2018-09-09T00:44:26.770Z,6.03
2018-09-09T00:46:54.958Z,5.50
2018-09-09T00:49:28.526Z,5.85
2018-09-09T00:52:02.097Z,5.90
2018-09-09T00:54:30.282Z,5.60
2018-09-09T00:56:58.441Z,6.10
2018-09-09T00:59:26.598Z,6.30
2018-09-09T01:01:54.758Z,6.05
2018-09-09T01:04:22.921Z,5.20
2018-09-09T01:06:51.122Z,5.80
2018-09-09T01:09:19.334Z,5.70
2018-09-09T01:11:47.564Z,6.08
2018-09-09T01:14:15.754Z,6.60
2018-09-09T01:16:43.930Z,6.03
2018-09-09T01:19:12.110Z,6.22
2018-09-09T01:21:40.306Z,6.27
2018-09-09T01:24:08.542Z,5.40
2018-09-09T01:26:36.725Z,5.80
2018-09-09T01:29:04.917Z,5.50
2018-09-09T01:31:33.102Z,6.10
2018-09-09T01:34:01.291Z,5.80
2018-09-09T01:36:29.494Z,6.10
2018-09-09T01:38:57.747Z,6.30
2018-09-09T01:41:25.937Z,6.30
2018-09-09T01:43:54.127Z,5.40
2018-09-09T01:46:22.342Z,5.60
2018-09-09T01:48:50.501Z,5.50
2018-09-09T01:51:18.694Z,5.30
2018-09-09T01:53:46.878Z,5.50
2018-09-09T01:56:15.066Z,6.10
2018-09-09T01:58:43.253Z,5.97
2018-09-09T02:01:11.425Z,5.30
2018-09-09T02:03:39.609Z,5.70
2018-09-09T02:06:07.813Z,5.80
2018-09-09T02:08:36.002Z,5.08
2018-09-09T02:11:04.186Z,5.40
2018-09-09T02:13:32.554Z,4.85
2018-09-09T02:16:01.305Z,5.55
2018-09-09T02:18:29.475Z,5.80
2018-09-09T02:20:57.656Z,5.40
2018-09-09T02:23:25.865Z,5.40
2018-09-09T02:25:54.159Z,5.78
2018-09-09T02:28:22.321Z,5.90
2018-09-09T02:30:50.566Z,5.90
2018-09-09T02:33:18.766Z,5.65
2018-09-09T02:35:46.953Z,6.00
2018-09-09T02:38:15.183Z,6.40
2018-09-09T02:40:43.366Z,6.83
2018-09-09T02:43:11.534Z,6.00
2018-09-09T02:45:39.750Z,5.70
2018-09-09T02:48:07.929Z,6.60
2018-09-09T02:50:36.165Z,6.30
2018-09-09T02:53:04.338Z,6.00
2018-09-09T02:55:32.530Z,6.83
2018-09-09T02:58:00.703Z,6.33
2018-09-09T03:00:28.874Z,6.30
2018-09-09T03:02:57.059Z,5.70
2018-09-09T03:05:25.254Z,6.50
2018-09-09T03:07:53.451Z,5.87
2018-09-09T03:10:21.646Z,6.10
2018-09-09T03:12:49.842Z,5.42
2018-09-09T03:15:18.001Z,5.42
2018-09-09T03:17:46.188Z,5.50
2018-09-09T03:20:14.358Z,6.10
2018-09-09T03:22:42.590Z,5.60
2018-09-09T03:25:10.786Z,5.63
2018-09-09T03:27:39.010Z,5.43
2018-09-09T03:30:07.224Z,6.60
2018-09-09T03:32:35.402Z,6.10
2018-09-09T03:35:03.677Z,5.22
2018-09-09T03:37:31.862Z,5.40
2018-09-09T03:40:00.041Z,5.87
2018-09-09T03:42:28.236Z,5.58
2018-09-09T03:44:56.493Z,6.03
2018-09-09T03:47:24.673Z,5.47
2018-09-09T03:49:52.876Z,5.50
2018-09-09T03:52:21.073Z,5.40
2018-09-09T03:54:49.277Z,5.20
2018-09-09T03:57:17.439Z,5.00
2018-09-09T03:59:45.616Z,5.42
2018-09-09T04:02:13.776Z,5.60
2018-09-09T04:04:41.961Z,5.20
2018-09-09T04:07:10.151Z,5.10
2018-09-09T04:09:38.330Z,4.83
2018-09-09T04:12:06.557Z,5.80
2018-09-09T04:14:34.782Z,5.35
2018-09-09T04:17:03.181Z,5.87
2018-09-09T04:19:31.370Z,5.92
2018-09-09T04:21:59.699Z,5.90
2018-09-09T04:24:27.897Z,6.25
2018-09-09T04:26:56.098Z,5.92
2018-09-09T04:29:24.310Z,6.20
2018-09-09T04:31:52.532Z,5.90
2018-09-09T04:34:20.711Z,4.90
2018-09-09T04:36:48.923Z,5.65
2018-09-09T04:39:17.113Z,5.60
2018-09-09T04:41:45.302Z,5.50
2018-09-09T04:44:14.119Z,5.20
2018-09-09T04:46:42.301Z,4.92
2018-09-09T04:49:10.541Z,5.10
2018-09-09T04:51:38.757Z,5.12
2018-09-09T04:54:07.011Z,5.20
2018-09-09T04:56:35.185Z,6.17
2018-09-09T04:59:03.402Z,6.20
2018-09-09T05:01:31.609Z,6.37
2018-09-09T05:03:59.769Z,6.60
2018-09-09T05:06:27.962Z,6.40
2018-09-09T05:08:56.130Z,5.92
2018-09-09T05:11:24.309Z,6.20
2018-09-09T05:13:52.538Z,6.03
2018-09-09T05:16:20.773Z,6.10
2018-09-09T05:18:48.950Z,6.30
2018-09-09T05:21:17.127Z,6.00
2018-09-09T05:23:45.318Z,5.70
2018-09-09T05:26:13.499Z,5.23
2018-09-09T05:28:41.658Z,6.22
2018-09-09T05:31:09.842Z,6.10
2018-09-09T05:33:38.017Z,6.50
2018-09-09T05:36:06.281Z,5.45
2018-09-09T05:38:34.461Z,6.08
2018-09-09T05:41:02.646Z,6.30
2018-09-09T05:43:30.813Z,6.85
2018-09-09T05:45:58.991Z,7.03
2018-09-09T05:48:27.137Z,7.10
2018-09-09T05:50:55.309Z,6.90
2018-09-09T05:53:23.486Z,7.00
2018-09-09T05:55:51.691Z,6.70
2018-09-09T05:58:19.853Z,6.42
2018-09-09T06:00:48.042Z,6.40
2018-09-09T06:03:16.229Z,6.00
2018-09-09T06:05:44.431Z,6.47
2018-09-09T06:08:12.581Z,7.20
2018-09-09T06:10:40.766Z,6.90
2018-09-09T06:13:08.936Z,7.60
2018-09-09T06:15:37.110Z,7.30
2018-09-09T06:18:06.038Z,7.20
2018-09-09T06:20:34.246Z,7.03
2018-09-09T06:23:02.425Z,7.60
2018-09-09T06:25:30.645Z,7.50
2018-09-09T06:27:58.777Z,7.90
2018-09-09T06:30:26.974Z,7.40
2018-09-09T06:32:55.149Z,7.97
2018-09-09T06:35:23.349Z,9.10
2018-09-09T06:37:51.514Z,9.20
2018-09-09T06:40:19.679Z,9.93
2018-09-09T06:42:47.967Z,12.20
2018-09-09T06:45:16.142Z,11.05
2018-09-09T06:47:44.325Z,10.40
2018-09-09T06:50:12.477Z,9.83
2018-09-09T06:52:40.650Z,9.13
2018-09-09T06:55:08.819Z,9.13
2018-09-09T06:57:36.985Z,9.03
2018-09-09T07:00:05.553Z,9.60
2018-09-09T07:02:33.722Z,9.13
2018-09-09T07:05:01.882Z,9.60
2018-09-09T07:07:30.062Z,10.13
2018-09-09T07:09:58.277Z,9.70
2018-09-09T07:12:26.461Z,10.20
2018-09-09T07:14:54.621Z,8.70
2018-09-09T07:17:22.795Z,9.40
2018-09-09T07:19:50.953Z,9.80
2018-09-09T07:22:19.117Z,9.47
2018-09-09T07:24:47.285Z,10.80
2018-09-09T07:27:15.526Z,10.17
2018-09-09T09:00:48.693Z,6.40
2018-09-09T09:03:16.867Z,6.83
2018-09-09T09:05:45.039Z,7.47
2018-09-09T09:08:13.276Z,7.00
2018-09-09T09:10:41.400Z,6.80
2018-09-09T09:13:09.575Z,7.23
2018-09-09T09:15:37.745Z,7.40
2018-09-09T09:18:05.934Z,6.70
2018-09-09T09:20:34.139Z,7.80
2018-09-09T09:23:02.904Z,6.40
2018-09-09T09:25:31.190Z,6.47
2018-09-09T09:27:59.473Z,6.67
2018-09-09T09:30:27.646Z,6.08
2018-09-09T09:32:55.836Z,5.80
2018-09-09T09:35:29.417Z,5.80
2018-09-09T09:37:57.606Z,5.20
2018-09-09T09:40:25.789Z,5.25
2018-09-09T09:42:53.954Z,5.30
2018-09-09T09:45:22.138Z,5.40
2018-09-09T09:47:50.362Z,4.97
2018-09-09T09:50:18.558Z,4.30
2018-09-09T09:52:46.725Z,5.47
2018-09-09T09:55:14.919Z,5.50
2018-09-09T09:57:43.078Z,4.60
2018-09-09T10:00:15.498Z,4.37
2018-09-09T10:02:43.669Z,4.30
2018-09-09T10:05:11.870Z,3.80
2018-09-09T10:07:40.038Z,4.25
2018-09-09T10:10:08.206Z,3.10
2018-09-09T10:12:36.361Z,3.90
2018-09-09T10:15:04.935Z,3.90
2018-09-09T10:17:33.067Z,3.50
2018-09-09T10:20:01.268Z,3.60
2018-09-09T10:22:29.418Z,2.80
2018-09-09T10:24:57.602Z,2.97
2018-09-09T10:27:25.770Z,3.00
2018-09-09T10:29:54.054Z,2.98
2018-09-09T10:32:22.222Z,3.83
2018-09-09T10:34:50.440Z,3.60
2018-09-09T10:37:18.566Z,3.70
2018-09-09T10:39:46.758Z,3.33
2018-09-09T10:42:14.946Z,2.90
2018-09-09T10:44:43.135Z,3.98
2018-09-09T10:47:11.416Z,3.20
2018-09-09T10:49:39.526Z,3.30
2018-09-09T10:52:07.714Z,3.60
2018-09-09T10:54:35.890Z,3.02
2018-09-09T10:57:04.098Z,3.40
2018-09-09T10:59:32.278Z,3.40
2018-09-09T11:02:00.528Z,3.30
2018-09-09T11:04:28.646Z,4.20
2018-09-09T11:06:57.111Z,3.97
2018-09-09T11:09:25.330Z,3.27
2018-09-09T11:11:53.490Z,3.70
2018-09-09T11:14:21.697Z,3.70
2018-09-09T11:16:49.906Z,3.40
2018-09-09T11:19:18.077Z,4.20
2018-09-09T11:21:46.238Z,3.87
2018-09-09T11:24:14.506Z,3.70
2018-09-09T11:26:42.629Z,3.80
2018-09-09T11:29:10.801Z,3.90
2018-09-09T11:31:39.003Z,3.87
2018-09-09T11:34:07.222Z,3.05
2018-09-09T11:36:35.426Z,3.90
2018-09-09T11:39:04.806Z,3.57
2018-09-09T11:41:32.982Z,3.70
2018-09-09T11:44:01.202Z,3.85
2018-09-09T11:46:29.418Z,3.30
2018-09-09T11:48:57.578Z,3.60
2018-09-09T11:51:25.766Z,3.60
2018-09-09T11:53:54.478Z,3.85
2018-09-09T11:56:22.670Z,2.93
2018-09-09T11:58:50.909Z,3.35
2018-09-09T12:01:19.090Z,2.90
2018-09-09T12:03:47.270Z,3.20
2018-09-09T12:06:15.445Z,3.00
2018-09-09T12:08:43.639Z,3.20
2018-09-09T12:11:11.819Z,2.90
2018-09-09T12:13:40.059Z,2.80
2018-09-09T12:16:08.197Z,2.90
2018-09-09T12:18:36.418Z,2.70
2018-09-09T12:21:04.686Z,2.70
2018-09-09T12:23:32.967Z,2.50
2018-09-09T12:26:01.065Z,2.92
2018-09-09T12:28:29.258Z,2.47
2018-09-09T12:30:57.435Z,3.25
2018-09-09T12:33:25.617Z,2.77
2018-09-09T12:35:53.813Z,3.00
2018-09-09T12:38:21.990Z,2.60
2018-09-09T12:40:50.181Z,3.30
2018-09-09T12:43:23.933Z,3.00
2018-09-09T12:45:57.517Z,2.70
2018-09-09T12:48:31.281Z,2.70
2018-09-09T12:50:59.738Z,2.60
2018-09-09T12:53:27.931Z,3.10
2018-09-09T12:55:56.111Z,3.00
2018-09-09T12:58:24.307Z,2.60
2018-09-09T13:00:52.450Z,3.20
2018-09-09T13:03:20.622Z,3.00
2018-09-09T13:05:48.801Z,2.90
2018-09-09T13:08:16.970Z,2.70
2018-09-09T13:10:45.172Z,3.20
2018-09-09T13:13:16.794Z,2.90
2018-09-09T13:15:45.106Z,2.60
2018-09-09T13:18:13.279Z,3.10
2018-09-09T13:20:41.704Z,2.60
2018-09-09T13:23:10.010Z,2.90
2018-09-09T13:25:38.178Z,2.80
2018-09-09T13:28:06.389Z,2.90
2018-09-09T13:30:34.576Z,2.87
2018-09-09T13:33:02.765Z,2.65
2018-09-09T13:35:30.970Z,2.90
2018-09-09T13:37:59.138Z,2.90
2018-09-09T13:40:27.358Z,2.50
2018-09-09T13:42:55.521Z,3.00
2018-09-09T13:45:23.710Z,3.00
2018-09-09T13:47:51.898Z,3.15
2018-09-09T13:50:20.096Z,2.80
2018-09-09T13:52:48.321Z,2.60
2018-09-09T13:55:16.510Z,2.50
2018-09-09T13:57:44.694Z,2.70
2018-09-09T14:00:12.866Z,2.70
2018-09-09T14:02:41.061Z,2.80
2018-09-09T14:05:09.355Z,2.80
2018-09-09T14:07:37.547Z,2.58
2018-09-09T14:10:06.464Z,2.50
2018-09-09T14:12:34.646Z,2.60
2018-09-09T14:15:02.855Z,2.60
2018-09-09T14:17:31.018Z,2.50
2018-09-09T14:19:59.178Z,2.60
2018-09-09T14:22:27.439Z,2.20
2018-09-09T14:24:55.594Z,2.70
2018-09-09T14:27:23.761Z,2.50
2018-09-09T14:29:51.967Z,2.40
2018-09-09T14:32:20.187Z,2.40
2018-09-09T14:34:48.359Z,2.47
2018-09-09T14:37:17.195Z,2.37
2018-09-09T14:39:45.386Z,2.40
2018-09-09T14:42:13.578Z,2.40
2018-09-09T14:44:41.746Z,2.70
2018-09-09T14:47:09.935Z,2.50
2018-09-09T14:49:38.119Z,2.60
2018-09-09T14:52:06.290Z,2.37
2018-09-09T14:54:34.466Z,2.30
2018-09-09T14:57:02.687Z,2.30
2018-09-09T14:59:30.917Z,2.10
2018-09-09T15:01:59.117Z,2.50
2018-09-09T15:04:27.287Z,2.50
2018-09-09T15:06:55.483Z,2.72
2018-09-09T15:09:23.634Z,2.60
2018-09-09T15:11:51.815Z,2.70
2018-09-09T15:14:19.977Z,2.90
2018-09-09T15:16:48.166Z,2.25
2018-09-09T15:19:16.374Z,2.60
2018-09-09T15:21:44.602Z,2.70
2018-09-09T15:24:12.799Z,2.33
2018-09-09T15:26:40.959Z,2.80
2018-09-09T15:29:09.142Z,2.63
2018-09-09T15:31:37.325Z,2.52
2018-09-09T15:34:05.524Z,2.12
2018-09-09T15:36:33.686Z,2.40
2018-09-09T15:39:01.870Z,2.10
2018-09-09T15:41:30.047Z,2.10
2018-09-09T15:43:58.214Z,2.25
2018-09-09T15:46:26.393Z,2.50
2018-09-09T15:48:54.590Z,2.40
2018-09-09T15:51:22.754Z,2.10
2018-09-09T15:53:50.930Z,2.60
2018-09-09T15:56:19.105Z,2.12
2018-09-09T15:58:47.278Z,2.35
2018-09-09T16:01:15.458Z,2.80
2018-09-09T16:03:43.646Z,2.27
2018-09-09T16:06:11.817Z,2.35
2018-09-09T16:08:39.990Z,2.43
2018-09-09T16:11:08.178Z,2.30
2018-09-09T16:13:36.424Z,2.20
2018-09-09T16:16:04.594Z,2.30
2018-09-09T16:18:32.770Z,2.10
2018-09-09T16:21:01.002Z,2.30
2018-09-09T16:23:29.228Z,2.30
2018-09-09T16:25:57.365Z,2.17
2018-09-09T16:28:25.555Z,2.30
2018-09-09T16:30:53.763Z,2.20
2018-09-09T16:33:21.933Z,2.00
2018-09-09T16:35:50.102Z,2.80
2018-09-09T16:38:18.281Z,2.30
2018-09-09T16:40:46.473Z,2.27
2018-09-09T16:43:14.670Z,2.90
2018-09-09T16:45:42.910Z,2.30
2018-09-09T16:48:11.162Z,2.40
2018-09-09T16:50:39.342Z,2.40
2018-09-09T16:53:07.506Z,2.42
2018-09-09T16:55:35.693Z,2.60
2018-09-09T16:58:03.866Z,2.50
2018-09-09T17:00:32.064Z,2.65
2018-09-09T17:03:00.243Z,2.70
2018-09-09T17:05:28.424Z,3.33
2018-09-09T17:07:56.590Z,2.10
2018-09-09T17:25:09.691Z,2.40
2018-09-09T17:27:37.870Z,2.70
2018-09-09T17:30:06.098Z,2.60
2018-09-09T17:32:34.287Z,3.20
2018-09-09T17:35:02.477Z,2.80
2018-09-09T17:37:30.640Z,2.43
2018-09-09T17:39:58.862Z,2.90
2018-09-09T17:42:27.049Z,2.83
2018-09-09T17:44:55.241Z,2.95
2018-09-09T17:47:23.417Z,3.13
2018-09-09T17:49:51.586Z,2.30
2018-09-09T17:52:19.812Z,2.90
2018-09-09T17:54:47.987Z,2.90
2018-09-09T17:57:16.235Z,3.15
2018-09-09T17:59:44.429Z,3.00
2018-09-09T18:02:12.623Z,2.80
2018-09-09T18:04:40.874Z,2.87
2018-09-09T18:07:09.108Z,2.90
2018-09-09T18:09:37.298Z,2.90
2018-09-09T18:12:05.526Z,3.17
2018-09-09T18:14:33.742Z,3.20
2018-09-09T18:17:01.923Z,3.40
2018-09-09T18:19:30.131Z,3.30
2018-09-09T18:21:58.306Z,3.00
2018-09-09T18:24:26.506Z,3.08
2018-09-09T18:26:54.676Z,3.20
2018-09-09T18:29:22.897Z,3.10
2018-09-09T18:31:51.090Z,2.90
2018-09-09T18:34:19.331Z,2.83
2018-09-09T18:36:47.519Z,3.10
2018-09-09T18:39:15.719Z,3.23
2018-09-09T18:41:43.903Z,3.70
2018-09-09T18:44:12.096Z,3.65
2018-09-09T18:46:40.306Z,3.90
2018-09-09T18:49:09.077Z,4.22
2018-09-09T18:51:37.269Z,3.50
2018-09-09T18:54:05.479Z,3.80
2018-09-09T18:56:33.706Z,3.87
2018-09-09T18:59:01.865Z,3.90
2018-09-09T19:01:30.111Z,3.30
2018-09-09T19:03:58.301Z,3.42
2018-09-09T19:06:26.482Z,3.70
2018-09-09T19:08:54.750Z,3.17
2018-09-09T19:11:22.989Z,3.30
2018-09-09T19:13:51.238Z,3.27
2018-09-09T19:16:19.362Z,3.40
2018-09-09T19:18:47.581Z,3.27
2018-09-09T19:21:15.844Z,3.60
2018-09-09T19:23:43.971Z,3.50
2018-09-09T19:26:12.182Z,3.40
2018-09-09T19:28:40.374Z,3.40
2018-09-09T19:31:08.555Z,3.85
2018-09-09T19:33:36.741Z,3.70
2018-09-09T19:36:05.014Z,3.47
2018-09-09T19:38:33.199Z,3.30
2018-09-09T19:41:01.401Z,3.45
2018-09-09T19:43:29.682Z,3.33
2018-09-09T19:45:57.894Z,3.58
2018-09-09T19:48:26.071Z,3.50
2018-09-09T19:50:54.275Z,3.20
2018-09-09T19:53:22.459Z,3.30
2018-09-09T19:55:50.842Z,3.60
2018-09-09T19:58:19.071Z,4.00
2018-09-09T20:00:47.250Z,3.90
2018-09-09T20:03:15.453Z,3.60
2018-09-09T20:05:43.638Z,3.37
2018-09-09T20:08:11.862Z,3.52
2018-09-09T20:10:40.054Z,3.63
2018-09-09T20:13:08.246Z,3.40
2018-09-09T20:15:36.420Z,3.50
2018-09-09T20:18:04.906Z,3.92
2018-09-09T20:20:33.121Z,3.85
2018-09-09T20:23:01.327Z,3.55
2018-09-09T20:25:29.515Z,3.70
2018-09-09T20:27:57.705Z,3.42
2018-09-09T20:30:25.909Z,3.50
2018-09-09T20:32:54.102Z,3.53
2018-09-09T20:35:22.262Z,3.60
2018-09-09T20:37:50.518Z,3.80
2018-09-09T20:40:18.708Z,3.50
2018-09-09T20:42:46.901Z,3.50
2018-09-09T20:45:15.082Z,3.20
2018-09-09T20:47:43.334Z,3.30
2018-09-09T20:50:11.534Z,3.80
2018-09-09T20:52:39.727Z,3.53
2018-09-09T20:55:07.931Z,3.60
2018-09-09T20:57:36.154Z,3.40
2018-09-09T21:00:04.399Z,3.72
2018-09-09T21:02:32.806Z,3.60
2018-09-09T21:05:01.026Z,3.30
2018-09-09T21:07:29.246Z,3.20
2018-09-09T21:09:57.430Z,3.62
2018-09-09T21:12:25.634Z,3.22
2018-09-09T21:14:53.817Z,3.37
2018-09-09T21:17:21.999Z,3.50
2018-09-09T21:19:50.174Z,3.33
2018-09-09T21:22:18.382Z,3.17
2018-09-09T21:24:46.583Z,3.47
2018-09-09T21:27:14.781Z,3.30
2018-09-09T21:29:42.962Z,3.80
2018-09-09T21:32:11.153Z,3.30
2018-09-09T21:34:39.334Z,3.50
2018-09-09T21:37:07.525Z,3.60
2018-09-09T21:39:36.542Z,3.12
2018-09-09T21:42:04.723Z,3.30
2018-09-09T21:44:32.927Z,3.80
2018-09-09T21:47:01.110Z,3.62
2018-09-09T21:49:29.283Z,3.50
2018-09-09T21:51:57.471Z,3.60
2018-09-09T21:54:25.689Z,3.60
2018-09-09T21:56:53.941Z,3.70
2018-09-09T21:59:22.214Z,3.42
2018-09-09T22:02:08.869Z,3.30
2018-09-09T22:04:37.533Z,3.87
2018-09-09T22:07:09.946Z,3.55
2018-09-09T22:09:38.622Z,3.50
2018-09-09T22:12:07.559Z,3.60
2018-09-09T22:14:35.755Z,3.65
2018-09-09T22:17:03.954Z,3.80
2018-09-09T22:19:32.167Z,3.50
2018-09-09T22:22:00.337Z,3.75
2018-09-09T22:24:28.630Z,4.30
2018-09-09T22:26:56.817Z,3.70
2018-09-09T22:29:25.019Z,3.80
2018-09-09T22:31:53.263Z,4.28
2018-09-09T22:34:21.495Z,3.90
2018-09-09T22:36:49.681Z,3.87
2018-09-09T22:39:17.850Z,4.03
2018-09-09T22:41:46.022Z,4.20
2018-09-09T22:44:14.206Z,3.17
2018-09-09T22:46:43.042Z,3.67
2018-09-09T22:49:11.230Z,3.67
2018-09-09T22:51:39.469Z,4.20
2018-09-09T22:54:07.654Z,3.40
2018-09-09T22:56:35.822Z,4.20
2018-09-09T22:59:04.015Z,4.23
2018-09-09T23:01:32.211Z,4.40
2018-09-09T23:04:00.395Z,4.37
2018-09-09T23:06:28.566Z,4.43
2018-09-09T23:08:56.748Z,4.07
2018-09-09T23:11:24.918Z,4.23
2018-09-09T23:13:53.099Z,4.53
2018-09-09T23:16:21.271Z,3.90
2018-09-09T23:18:49.455Z,4.97
2018-09-09T23:21:17.621Z,4.50
2018-09-09T23:23:45.845Z,5.10
2018-09-09T23:26:14.021Z,3.97
2018-09-09T23:28:42.206Z,4.23
2018-09-09T23:31:10.378Z,4.03
2018-09-09T23:33:38.561Z,4.17
2018-09-09T23:36:06.746Z,4.17
2018-09-09T23:38:34.931Z,4.07
2018-09-09T23:41:03.102Z,4.73
2018-09-09T23:43:31.290Z,5.00
2018-09-09T23:45:59.701Z,3.97
2018-09-09T23:48:27.881Z,4.20
2018-09-09T23:50:56.050Z,4.80
2018-09-09T23:53:24.291Z,4.60
2018-09-09T23:55:52.461Z,4.73
2018-09-09T23:58:20.655Z,4.20
